sensor_id;sensor_type;location;lat;lon;timestamp;P1;durP1;ratioP1;P2;durP2;ratioP2
39176;SDS011;24904;52.208;21.192;2022-09-09T00:04:42;13.60;;;6.40;;
39176;SDS011;24904;52.208;21.192;2022-09-09T00:09:59;15.30;;;6.80;;
39176;SDS011;24904;52.208;21.192;2022-09-09T00:15:13;15.10;;;6.30;;
39176;SDS011;24904;52.208;21.192;2022-09-09T00:20:23;12.70;;;6.20;;
39176;SDS011;24904;52.208;21.192;2022-09-09T00:25:37;15.40;;;6.70;;
39176;SDS011;24904;52.208;21.192;2022-09-09T00:30:50;17.10;;;7.00;;
39176;SDS011;24904;52.208;21.192;2022-09-09T00:35:57;13.70;;;6.40;;
39176;SDS011;24904;52.208;21.192;2022-09-09T00:41:05;16.20;;;7.80;;
39176;SDS011;24904;52.208;21.192;2022-09-09T00:46:31;11.10;;;6.40;;
39176;SDS011;24904;52.208;21.192;2022-09-09T00:51:58;12.60;;;6.60;;
39176;SDS011;24904;52.208;21.192;2022-09-09T00:57:17;14.50;;;6.80;;
39176;SDS011;24904;52.208;21.192;2022-09-09T01:02:31;13.50;;;6.90;;
39176;SDS011;24904;52.208;21.192;2022-09-09T01:07:44;13.90;;;6.30;;
39176;SDS011;24904;52.208;21.192;2022-09-09T01:18:00;14.30;;;6.90;;
39176;SDS011;24904;52.208;21.192;2022-09-09T01:23:16;21.20;;;7.60;;
39176;SDS011;24904;52.208;21.192;2022-09-09T01:29:06;17.20;;;7.40;;
39176;SDS011;24904;52.208;21.192;2022-09-09T01:34:15;18.70;;;9.00;;
39176;SDS011;24904;52.208;21.192;2022-09-09T01:39:24;12.20;;;7.00;;
39176;SDS011;24904;52.208;21.192;2022-09-09T01:44:39;15.90;;;7.30;;
39176;SDS011;24904;52.208;21.192;2022-09-09T01:49:45;14.20;;;7.60;;
39176;SDS011;24904;52.208;21.192;2022-09-09T01:54:57;13.80;;;8.40;;
39176;SDS011;24904;52.208;21.192;2022-09-09T02:00:10;13.20;;;7.60;;
39176;SDS011;24904;52.208;21.192;2022-09-09T02:05:21;13.20;;;7.70;;
39176;SDS011;24904;52.208;21.192;2022-09-09T02:10:37;15.70;;;8.00;;
39176;SDS011;24904;52.208;21.192;2022-09-09T02:15:55;14.30;;;8.20;;
39176;SDS011;24904;52.208;21.192;2022-09-09T02:21:07;12.60;;;7.90;;
39176;SDS011;24904;52.208;21.192;2022-09-09T02:26:15;13.90;;;8.10;;
39176;SDS011;24904;52.208;21.192;2022-09-09T02:31:28;15.60;;;8.40;;
39176;SDS011;24904;52.208;21.192;2022-09-09T02:36:38;17.50;;;8.70;;
39176;SDS011;24904;52.208;21.192;2022-09-09T02:41:46;13.50;;;8.40;;
39176;SDS011;24904;52.208;21.192;2022-09-09T02:46:56;14.80;;;8.40;;
39176;SDS011;24904;52.208;21.192;2022-09-09T02:52:18;15.90;;;8.40;;
39176;SDS011;24904;52.208;21.192;2022-09-09T02:57:29;18.00;;;8.80;;
39176;SDS011;24904;52.208;21.192;2022-09-09T03:02:37;15.70;;;9.10;;
39176;SDS011;24904;52.208;21.192;2022-09-09T03:07:44;19.80;;;9.00;;
39176;SDS011;24904;52.208;21.192;2022-09-09T03:12:52;19.60;;;8.10;;
39176;SDS011;24904;52.208;21.192;2022-09-09T03:17:58;15.70;;;8.40;;
39176;SDS011;24904;52.208;21.192;2022-09-09T03:23:05;14.80;;;8.50;;
39176;SDS011;24904;52.208;21.192;2022-09-09T03:28:10;15.80;;;7.40;;
39176;SDS011;24904;52.208;21.192;2022-09-09T03:33:18;12.40;;;7.10;;
39176;SDS011;24904;52.208;21.192;2022-09-09T03:38:23;11.60;;;7.50;;
39176;SDS011;24904;52.208;21.192;2022-09-09T03:43:30;15.40;;;7.30;;
39176;SDS011;24904;52.208;21.192;2022-09-09T03:48:35;10.50;;;7.10;;
39176;SDS011;24904;52.208;21.192;2022-09-09T03:53:41;9.70;;;6.40;;
39176;SDS011;24904;52.208;21.192;2022-09-09T03:58:47;10.90;;;7.00;;
39176;SDS011;24904;52.208;21.192;2022-09-09T04:03:54;12.70;;;6.20;;
39176;SDS011;24904;52.208;21.192;2022-09-09T04:09:01;10.50;;;5.70;;
39176;SDS011;24904;52.208;21.192;2022-09-09T04:14:07;9.00;;;5.40;;
39176;SDS011;24904;52.208;21.192;2022-09-09T04:19:12;10.80;;;5.80;;
39176;SDS011;24904;52.208;21.192;2022-09-09T04:24:19;9.60;;;5.20;;
39176;SDS011;24904;52.208;21.192;2022-09-09T04:29:25;9.40;;;5.20;;
39176;SDS011;24904;52.208;21.192;2022-09-09T04:34:31;13.00;;;6.10;;
39176;SDS011;24904;52.208;21.192;2022-09-09T04:39:36;9.50;;;5.40;;
39176;SDS011;24904;52.208;21.192;2022-09-09T04:44:42;6.80;;;4.80;;
39176;SDS011;24904;52.208;21.192;2022-09-09T04:49:47;6.40;;;4.90;;
39176;SDS011;24904;52.208;21.192;2022-09-09T04:54:53;8.50;;;4.90;;
39176;SDS011;24904;52.208;21.192;2022-09-09T04:59:59;6.40;;;4.70;;
39176;SDS011;24904;52.208;21.192;2022-09-09T05:05:08;5.80;;;4.00;;
39176;SDS011;24904;52.208;21.192;2022-09-09T05:10:14;6.40;;;4.40;;
39176;SDS011;24904;52.208;21.192;2022-09-09T05:15:20;6.60;;;4.20;;
39176;SDS011;24904;52.208;21.192;2022-09-09T05:20:26;7.70;;;4.20;;
39176;SDS011;24904;52.208;21.192;2022-09-09T05:25:31;7.40;;;4.30;;
39176;SDS011;24904;52.208;21.192;2022-09-09T05:30:36;8.00;;;4.10;;
39176;SDS011;24904;52.208;21.192;2022-09-09T05:35:42;7.60;;;4.90;;
39176;SDS011;24904;52.208;21.192;2022-09-09T05:40:48;5.90;;;4.00;;
39176;SDS011;24904;52.208;21.192;2022-09-09T05:46:01;7.30;;;4.10;;
39176;SDS011;24904;52.208;21.192;2022-09-09T05:51:08;6.30;;;4.20;;
39176;SDS011;24904;52.208;21.192;2022-09-09T05:56:18;6.20;;;3.90;;
39176;SDS011;24904;52.208;21.192;2022-09-09T06:06:33;7.20;;;4.50;;
39176;SDS011;24904;52.208;21.192;2022-09-09T06:11:45;7.60;;;4.60;;
39176;SDS011;24904;52.208;21.192;2022-09-09T06:16:51;7.00;;;4.90;;
39176;SDS011;24904;52.208;21.192;2022-09-09T06:21:58;7.30;;;5.20;;
39176;SDS011;24904;52.208;21.192;2022-09-09T06:27:05;7.70;;;6.00;;
39176;SDS011;24904;52.208;21.192;2022-09-09T06:32:11;7.00;;;5.60;;
39176;SDS011;24904;52.208;21.192;2022-09-09T06:37:17;8.90;;;6.10;;
39176;SDS011;24904;52.208;21.192;2022-09-09T06:42:24;9.40;;;5.80;;
39176;SDS011;24904;52.208;21.192;2022-09-09T06:47:45;12.90;;;6.40;;
39176;SDS011;24904;52.208;21.192;2022-09-09T06:52:50;10.50;;;6.10;;
39176;SDS011;24904;52.208;21.192;2022-09-09T06:57:55;9.30;;;6.40;;
39176;SDS011;24904;52.208;21.192;2022-09-09T07:03:02;8.30;;;5.50;;
39176;SDS011;24904;52.208;21.192;2022-09-09T07:08:08;8.10;;;6.20;;
39176;SDS011;24904;52.208;21.192;2022-09-09T07:13:14;11.60;;;7.20;;
39176;SDS011;24904;52.208;21.192;2022-09-09T07:18:23;8.80;;;6.20;;
39176;SDS011;24904;52.208;21.192;2022-09-09T07:23:28;9.90;;;6.80;;
39176;SDS011;24904;52.208;21.192;2022-09-09T07:28:34;8.30;;;6.60;;
39176;SDS011;24904;52.208;21.192;2022-09-09T07:33:40;10.10;;;6.80;;
39176;SDS011;24904;52.208;21.192;2022-09-09T07:38:47;10.80;;;6.50;;
39176;SDS011;24904;52.208;21.192;2022-09-09T07:43:54;10.90;;;6.90;;
39176;SDS011;24904;52.208;21.192;2022-09-09T07:49:01;10.40;;;7.30;;
39176;SDS011;24904;52.208;21.192;2022-09-09T07:54:09;10.40;;;7.20;;
39176;SDS011;24904;52.208;21.192;2022-09-09T07:59:17;9.80;;;6.80;;
39176;SDS011;24904;52.208;21.192;2022-09-09T08:04:25;14.60;;;7.40;;
39176;SDS011;24904;52.208;21.192;2022-09-09T08:09:31;10.90;;;7.50;;
39176;SDS011;24904;52.208;21.192;2022-09-09T08:14:41;10.80;;;7.20;;
39176;SDS011;24904;52.208;21.192;2022-09-09T08:19:47;10.00;;;6.60;;
39176;SDS011;24904;52.208;21.192;2022-09-09T08:24:55;9.50;;;6.80;;
39176;SDS011;24904;52.208;21.192;2022-09-09T08:30:01;14.80;;;7.70;;
39176;SDS011;24904;52.208;21.192;2022-09-09T08:35:08;10.10;;;7.60;;
39176;SDS011;24904;52.208;21.192;2022-09-09T08:40:17;13.10;;;7.80;;
39176;SDS011;24904;52.208;21.192;2022-09-09T08:45:33;12.80;;;8.00;;
39176;SDS011;24904;52.208;21.192;2022-09-09T08:50:46;14.30;;;8.00;;
39176;SDS011;24904;52.208;21.192;2022-09-09T08:56:02;14.00;;;8.50;;
39176;SDS011;24904;52.208;21.192;2022-09-09T09:01:30;13.70;;;7.90;;
39176;SDS011;24904;52.208;21.192;2022-09-09T09:06:53;13.30;;;8.00;;
39176;SDS011;24904;52.208;21.192;2022-09-09T09:12:11;14.60;;;8.40;;
39176;SDS011;24904;52.208;21.192;2022-09-09T09:17:22;18.20;;;9.00;;
39176;SDS011;24904;52.208;21.192;2022-09-09T09:22:35;14.40;;;8.90;;
39176;SDS011;24904;52.208;21.192;2022-09-09T09:27:49;18.10;;;9.30;;
39176;SDS011;24904;52.208;21.192;2022-09-09T09:33:05;14.50;;;9.60;;
39176;SDS011;24904;52.208;21.192;2022-09-09T09:38:18;17.50;;;9.90;;
39176;SDS011;24904;52.208;21.192;2022-09-09T09:43:28;16.30;;;10.70;;
39176;SDS011;24904;52.208;21.192;2022-09-09T09:48:36;19.10;;;10.80;;
39176;SDS011;24904;52.208;21.192;2022-09-09T09:53:42;21.50;;;11.00;;
39176;SDS011;24904;52.208;21.192;2022-09-09T09:58:50;19.20;;;11.30;;
39176;SDS011;24904;52.208;21.192;2022-09-09T10:04:03;18.70;;;12.00;;
39176;SDS011;24904;52.208;21.192;2022-09-09T10:09:23;18.50;;;11.50;;
39176;SDS011;24904;52.208;21.192;2022-09-09T10:14:30;19.90;;;11.40;;
39176;SDS011;24904;52.208;21.192;2022-09-09T10:19:44;22.80;;;11.50;;
39176;SDS011;24904;52.208;21.192;2022-09-09T10:30:28;19.70;;;11.30;;
39176;SDS011;24904;52.208;21.192;2022-09-09T10:35:47;19.50;;;11.30;;
39176;SDS011;24904;52.208;21.192;2022-09-09T10:41:11;18.80;;;12.50;;
39176;SDS011;24904;52.208;21.192;2022-09-09T10:46:23;20.20;;;13.20;;
39176;SDS011;24904;52.208;21.192;2022-09-09T10:51:39;20.90;;;12.00;;
39176;SDS011;24904;52.208;21.192;2022-09-09T10:56:54;19.40;;;12.80;;
39176;SDS011;24904;52.208;21.192;2022-09-09T11:02:02;24.00;;;13.40;;
39176;SDS011;24904;52.208;21.192;2022-09-09T11:07:20;21.90;;;14.40;;
39176;SDS011;24904;52.208;21.192;2022-09-09T11:12:31;22.40;;;13.50;;
39176;SDS011;24904;52.208;21.192;2022-09-09T11:17:42;25.70;;;14.90;;
39176;SDS011;24904;52.208;21.192;2022-09-09T11:28:08;24.00;;;14.10;;
39176;SDS011;24904;52.208;21.192;2022-09-09T11:44:24;22.70;;;15.50;;
39176;SDS011;24904;52.208;21.192;2022-09-09T11:49:41;24.60;;;15.10;;
39176;SDS011;24904;52.208;21.192;2022-09-09T11:54:47;25.20;;;15.00;;
39176;SDS011;24904;52.208;21.192;2022-09-09T11:59:53;24.20;;;15.00;;
39176;SDS011;24904;52.208;21.192;2022-09-09T12:04:59;23.30;;;14.90;;
39176;SDS011;24904;52.208;21.192;2022-09-09T12:10:20;31.20;;;16.20;;
39176;SDS011;24904;52.208;21.192;2022-09-09T12:15:28;27.40;;;15.30;;
39176;SDS011;24904;52.208;21.192;2022-09-09T12:20:35;29.40;;;16.60;;
39176;SDS011;24904;52.208;21.192;2022-09-09T12:25:47;29.60;;;16.90;;
39176;SDS011;24904;52.208;21.192;2022-09-09T12:31:01;26.90;;;15.90;;
39176;SDS011;24904;52.208;21.192;2022-09-09T12:36:11;31.20;;;16.00;;
39176;SDS011;24904;52.208;21.192;2022-09-09T12:46:29;24.20;;;14.10;;
39176;SDS011;24904;52.208;21.192;2022-09-09T12:51:39;25.40;;;15.50;;
39176;SDS011;24904;52.208;21.192;2022-09-09T12:56:48;27.00;;;15.50;;
39176;SDS011;24904;52.208;21.192;2022-09-09T13:01:57;25.00;;;15.50;;
39176;SDS011;24904;52.208;21.192;2022-09-09T13:07:09;26.30;;;14.50;;
39176;SDS011;24904;52.208;21.192;2022-09-09T13:12:15;24.60;;;15.30;;
39176;SDS011;24904;52.208;21.192;2022-09-09T13:17:22;24.90;;;16.00;;
39176;SDS011;24904;52.208;21.192;2022-09-09T13:27:36;33.30;;;14.70;;
39176;SDS011;24904;52.208;21.192;2022-09-09T13:32:43;25.40;;;16.30;;
39176;SDS011;24904;52.208;21.192;2022-09-09T13:37:48;30.50;;;16.60;;
39176;SDS011;24904;52.208;21.192;2022-09-09T13:42:54;32.80;;;16.70;;
39176;SDS011;24904;52.208;21.192;2022-09-09T13:48:01;27.40;;;16.80;;
39176;SDS011;24904;52.208;21.192;2022-09-09T13:53:15;31.20;;;16.90;;
39176;SDS011;24904;52.208;21.192;2022-09-09T13:58:20;28.60;;;16.70;;
39176;SDS011;24904;52.208;21.192;2022-09-09T14:03:26;29.80;;;17.50;;
39176;SDS011;24904;52.208;21.192;2022-09-09T14:08:31;30.50;;;17.70;;
39176;SDS011;24904;52.208;21.192;2022-09-09T14:13:38;32.60;;;17.60;;
39176;SDS011;24904;52.208;21.192;2022-09-09T14:18:44;33.70;;;16.90;;
39176;SDS011;24904;52.208;21.192;2022-09-09T14:23:49;27.10;;;16.80;;
39176;SDS011;24904;52.208;21.192;2022-09-09T14:28:54;30.80;;;17.50;;
39176;SDS011;24904;52.208;21.192;2022-09-09T14:33:59;29.80;;;18.50;;
39176;SDS011;24904;52.208;21.192;2022-09-09T14:39:04;30.50;;;18.70;;
39176;SDS011;24904;52.208;21.192;2022-09-09T14:44:09;34.30;;;18.80;;
39176;SDS011;24904;52.208;21.192;2022-09-09T14:49:14;32.40;;;17.60;;
39176;SDS011;24904;52.208;21.192;2022-09-09T14:54:19;31.80;;;19.10;;
39176;SDS011;24904;52.208;21.192;2022-09-09T14:59:24;31.00;;;18.00;;
39176;SDS011;24904;52.208;21.192;2022-09-09T15:04:29;32.50;;;18.10;;
39176;SDS011;24904;52.208;21.192;2022-09-09T15:09:35;31.30;;;17.60;;
39176;SDS011;24904;52.208;21.192;2022-09-09T15:14:40;29.00;;;18.40;;
39176;SDS011;24904;52.208;21.192;2022-09-09T15:19:45;28.50;;;18.00;;
39176;SDS011;24904;52.208;21.192;2022-09-09T15:24:51;28.90;;;17.00;;
39176;SDS011;24904;52.208;21.192;2022-09-09T15:29:56;31.50;;;17.80;;
39176;SDS011;24904;52.208;21.192;2022-09-09T15:35:02;27.50;;;17.30;;
39176;SDS011;24904;52.208;21.192;2022-09-09T15:40:09;31.10;;;16.90;;
39176;SDS011;24904;52.208;21.192;2022-09-09T15:45:15;28.30;;;16.80;;
39176;SDS011;24904;52.208;21.192;2022-09-09T15:50:20;29.70;;;18.40;;
39176;SDS011;24904;52.208;21.192;2022-09-09T15:55:25;27.30;;;17.10;;
39176;SDS011;24904;52.208;21.192;2022-09-09T16:00:30;29.30;;;17.80;;
39176;SDS011;24904;52.208;21.192;2022-09-09T16:05:36;25.20;;;16.60;;
39176;SDS011;24904;52.208;21.192;2022-09-09T16:10:42;27.50;;;17.50;;
39176;SDS011;24904;52.208;21.192;2022-09-09T16:15:48;28.60;;;16.90;;
39176;SDS011;24904;52.208;21.192;2022-09-09T16:20:58;32.30;;;17.60;;
39176;SDS011;24904;52.208;21.192;2022-09-09T16:26:03;33.20;;;19.10;;
39176;SDS011;24904;52.208;21.192;2022-09-09T16:31:15;29.80;;;17.50;;
39176;SDS011;24904;52.208;21.192;2022-09-09T16:36:22;26.90;;;17.20;;
39176;SDS011;24904;52.208;21.192;2022-09-09T16:41:29;31.10;;;17.60;;
39176;SDS011;24904;52.208;21.192;2022-09-09T16:46:35;33.80;;;17.80;;
39176;SDS011;24904;52.208;21.192;2022-09-09T16:51:42;25.40;;;16.90;;
39176;SDS011;24904;52.208;21.192;2022-09-09T16:56:49;30.90;;;16.70;;
39176;SDS011;24904;52.208;21.192;2022-09-09T17:01:54;29.30;;;17.10;;
39176;SDS011;24904;52.208;21.192;2022-09-09T17:06:59;27.40;;;16.50;;
39176;SDS011;24904;52.208;21.192;2022-09-09T17:12:04;26.40;;;16.00;;
39176;SDS011;24904;52.208;21.192;2022-09-09T17:17:11;31.90;;;17.30;;
39176;SDS011;24904;52.208;21.192;2022-09-09T17:22:16;28.10;;;19.00;;
39176;SDS011;24904;52.208;21.192;2022-09-09T17:27:22;30.80;;;17.50;;
39176;SDS011;24904;52.208;21.192;2022-09-09T17:32:27;27.30;;;16.70;;
39176;SDS011;24904;52.208;21.192;2022-09-09T17:37:33;27.80;;;16.30;;
39176;SDS011;24904;52.208;21.192;2022-09-09T17:42:38;26.50;;;15.20;;
39176;SDS011;24904;52.208;21.192;2022-09-09T17:47:43;34.30;;;16.20;;
39176;SDS011;24904;52.208;21.192;2022-09-09T17:52:49;27.30;;;16.00;;
39176;SDS011;24904;52.208;21.192;2022-09-09T17:57:54;24.00;;;14.60;;
39176;SDS011;24904;52.208;21.192;2022-09-09T18:03:00;22.20;;;14.00;;
39176;SDS011;24904;52.208;21.192;2022-09-09T18:08:05;18.40;;;12.90;;
39176;SDS011;24904;52.208;21.192;2022-09-09T18:13:10;21.10;;;12.70;;
39176;SDS011;24904;52.208;21.192;2022-09-09T18:18:17;20.90;;;12.60;;
39176;SDS011;24904;52.208;21.192;2022-09-09T18:23:22;19.20;;;11.40;;
39176;SDS011;24904;52.208;21.192;2022-09-09T18:28:27;16.20;;;10.30;;
39176;SDS011;24904;52.208;21.192;2022-09-09T18:33:32;15.90;;;10.90;;
39176;SDS011;24904;52.208;21.192;2022-09-09T18:38:39;17.10;;;11.90;;
39176;SDS011;24904;52.208;21.192;2022-09-09T18:43:44;19.50;;;11.00;;
39176;SDS011;24904;52.208;21.192;2022-09-09T18:48:50;19.90;;;11.70;;
39176;SDS011;24904;52.208;21.192;2022-09-09T18:53:58;21.10;;;13.10;;
39176;SDS011;24904;52.208;21.192;2022-09-09T18:59:04;18.90;;;11.80;;
39176;SDS011;24904;52.208;21.192;2022-09-09T19:04:12;16.70;;;11.40;;
39176;SDS011;24904;52.208;21.192;2022-09-09T19:09:17;20.60;;;11.60;;
39176;SDS011;24904;52.208;21.192;2022-09-09T19:14:22;18.80;;;12.20;;
39176;SDS011;24904;52.208;21.192;2022-09-09T19:19:28;21.40;;;13.40;;
39176;SDS011;24904;52.208;21.192;2022-09-09T19:24:34;23.10;;;14.00;;
39176;SDS011;24904;52.208;21.192;2022-09-09T19:29:40;23.90;;;14.10;;
39176;SDS011;24904;52.208;21.192;2022-09-09T19:34:45;21.30;;;14.20;;
39176;SDS011;24904;52.208;21.192;2022-09-09T19:39:51;25.70;;;12.80;;
39176;SDS011;24904;52.208;21.192;2022-09-09T19:44:56;20.30;;;12.70;;
39176;SDS011;24904;52.208;21.192;2022-09-09T19:50:02;18.50;;;12.30;;
39176;SDS011;24904;52.208;21.192;2022-09-09T19:55:08;21.20;;;13.70;;
39176;SDS011;24904;52.208;21.192;2022-09-09T20:00:14;20.00;;;12.60;;
39176;SDS011;24904;52.208;21.192;2022-09-09T20:05:19;15.90;;;11.10;;
39176;SDS011;24904;52.208;21.192;2022-09-09T20:10:24;17.30;;;11.10;;
39176;SDS011;24904;52.208;21.192;2022-09-09T20:15:30;13.80;;;9.90;;
39176;SDS011;24904;52.208;21.192;2022-09-09T20:20:35;13.80;;;9.30;;
39176;SDS011;24904;52.208;21.192;2022-09-09T20:25:44;14.20;;;9.40;;
39176;SDS011;24904;52.208;21.192;2022-09-09T20:30:49;13.60;;;8.70;;
39176;SDS011;24904;52.208;21.192;2022-09-09T20:35:55;14.40;;;9.40;;
39176;SDS011;24904;52.208;21.192;2022-09-09T20:41:05;14.00;;;9.20;;
39176;SDS011;24904;52.208;21.192;2022-09-09T20:46:15;13.50;;;9.50;;
39176;SDS011;24904;52.208;21.192;2022-09-09T20:51:21;13.50;;;9.90;;
39176;SDS011;24904;52.208;21.192;2022-09-09T20:56:27;15.70;;;10.20;;
39176;SDS011;24904;52.208;21.192;2022-09-09T21:01:34;15.60;;;9.30;;
39176;SDS011;24904;52.208;21.192;2022-09-09T21:06:39;12.00;;;9.00;;
39176;SDS011;24904;52.208;21.192;2022-09-09T21:11:44;11.10;;;8.60;;
39176;SDS011;24904;52.208;21.192;2022-09-09T21:16:49;13.20;;;10.30;;
39176;SDS011;24904;52.208;21.192;2022-09-09T21:21:55;14.80;;;9.50;;
39176;SDS011;24904;52.208;21.192;2022-09-09T21:27:00;12.90;;;9.90;;
39176;SDS011;24904;52.208;21.192;2022-09-09T21:32:06;11.00;;;8.60;;
39176;SDS011;24904;52.208;21.192;2022-09-09T21:37:11;15.40;;;9.20;;
39176;SDS011;24904;52.208;21.192;2022-09-09T21:42:16;13.30;;;9.30;;
39176;SDS011;24904;52.208;21.192;2022-09-09T21:47:21;13.00;;;9.50;;
39176;SDS011;24904;52.208;21.192;2022-09-09T21:52:26;12.20;;;9.30;;
39176;SDS011;24904;52.208;21.192;2022-09-09T21:57:31;16.90;;;9.10;;
39176;SDS011;24904;52.208;21.192;2022-09-09T22:02:36;13.60;;;9.50;;
39176;SDS011;24904;52.208;21.192;2022-09-09T22:07:42;11.30;;;8.90;;
39176;SDS011;24904;52.208;21.192;2022-09-09T22:12:47;13.20;;;9.50;;
39176;SDS011;24904;52.208;21.192;2022-09-09T22:17:52;14.10;;;10.10;;
39176;SDS011;24904;52.208;21.192;2022-09-09T22:22:57;14.90;;;9.70;;
39176;SDS011;24904;52.208;21.192;2022-09-09T22:28:04;12.60;;;10.10;;
39176;SDS011;24904;52.208;21.192;2022-09-09T22:33:10;14.30;;;9.40;;
39176;SDS011;24904;52.208;21.192;2022-09-09T22:38:15;11.50;;;8.60;;
39176;SDS011;24904;52.208;21.192;2022-09-09T22:43:20;11.40;;;8.00;;
39176;SDS011;24904;52.208;21.192;2022-09-09T22:48:25;11.40;;;8.60;;
39176;SDS011;24904;52.208;21.192;2022-09-09T22:53:33;16.50;;;8.50;;
39176;SDS011;24904;52.208;21.192;2022-09-09T22:58:38;11.40;;;8.70;;
39176;SDS011;24904;52.208;21.192;2022-09-09T23:03:44;11.30;;;8.70;;
39176;SDS011;24904;52.208;21.192;2022-09-09T23:08:50;11.90;;;8.70;;
39176;SDS011;24904;52.208;21.192;2022-09-09T23:13:57;11.30;;;8.50;;
39176;SDS011;24904;52.208;21.192;2022-09-09T23:19:03;12.10;;;8.40;;
39176;SDS011;24904;52.208;21.192;2022-09-09T23:24:11;12.00;;;8.20;;
39176;SDS011;24904;52.208;21.192;2022-09-09T23:29:18;15.30;;;8.50;;
39176;SDS011;24904;52.208;21.192;2022-09-09T23:34:23;10.60;;;7.50;;
39176;SDS011;24904;52.208;21.192;2022-09-09T23:39:28;12.10;;;8.40;;
39176;SDS011;24904;52.208;21.192;2022-09-09T23:44:33;13.30;;;8.40;;
39176;SDS011;24904;52.208;21.192;2022-09-09T23:49:40;11.90;;;8.00;;
39176;SDS011;24904;52.208;21.192;2022-09-09T23:54:45;13.40;;;8.00;;
39176;SDS011;24904;52.208;21.192;2022-09-09T23:59:50;11.80;;;8.00;;
